Terminal Aerodrome Forecast
Issued by NWS

Home | Current Version | Previous Version | Text Only | Print | Product List | Glossary On
Versions: 1 2 3 4 5 6 7 8 9 10 11 12 13 14 15 16 17 18 19 20 21 22 23 24 25
000
FTPA31 PHFO 262300 RRA
TAFJHM
TAF
PHJH 262341Z 2700/2724 24006KT P6SM FEW030
     FM272000 01011KT P6SM FEW030 SCT050
      AMD NOT SKED AFT 270400=

USA.gov is the U.S. government's official web portal to all federal, state and local government web resources and services.